Terminal Aerodrome Forecast
Issued by NWS

Home | Current Version | Previous Version | Text Only | Print | Product List | Glossary On
Versions: 1 2 3 4 5 6 7 8 9 10 11 12 13 14 15 16 17
000
FTUS43 KILX 251513 AAA
TAFDEC
TAF AMD
KDEC 251513Z 2515/2612 18014G24KT P6SM SCT040 BKN080
     FM252000 17013G21KT P6SM -SHRA VCTS OVC050CB
     FM260200 14009KT P6SM VCSH OVC035
     FM260400 14008KT P6SM OVC025
     FM260800 14009KT 5SM BR BKN015
     FM261100 17007KT 4SM BR OVC008=

USA.gov is the U.S. government's official web portal to all federal, state and local government web resources and services.